sensor_id;sensor_type;location;lat;lon;timestamp;temperature;humidity
14006;DHT22;7078;51.542;7.314;2023-07-30T00:00:43;16.80;99.90
14006;DHT22;7078;51.542;7.314;2023-07-30T00:03:08;16.70;99.90
14006;DHT22;7078;51.542;7.314;2023-07-30T00:05:34;16.80;99.90
14006;DHT22;7078;51.542;7.314;2023-07-30T00:07:59;16.70;99.90
14006;DHT22;7078;51.542;7.314;2023-07-30T00:10:25;16.60;99.90
14006;DHT22;7078;51.542;7.314;2023-07-30T00:12:51;16.60;99.90
14006;DHT22;7078;51.542;7.314;2023-07-30T00:15:16;16.60;99.90
14006;DHT22;7078;51.542;7.314;2023-07-30T00:17:42;16.60;99.90
14006;DHT22;7078;51.542;7.314;2023-07-30T00:20:08;16.50;99.90
14006;DHT22;7078;51.542;7.314;2023-07-30T00:22:34;16.50;99.90
14006;DHT22;7078;51.542;7.314;2023-07-30T00:24:59;16.50;99.90
14006;DHT22;7078;51.542;7.314;2023-07-30T00:27:25;16.50;99.90
14006;DHT22;7078;51.542;7.314;2023-07-30T00:29:51;16.50;99.90
14006;DHT22;7078;51.542;7.314;2023-07-30T00:32:16;16.40;99.90
14006;DHT22;7078;51.542;7.314;2023-07-30T00:34:43;16.40;99.90
14006;DHT22;7078;51.542;7.314;2023-07-30T00:37:09;16.40;99.90
14006;DHT22;7078;51.542;7.314;2023-07-30T00:39:35;16.40;99.90
14006;DHT22;7078;51.542;7.314;2023-07-30T00:42:00;16.30;99.90
14006;DHT22;7078;51.542;7.314;2023-07-30T00:44:26;16.20;99.90
14006;DHT22;7078;51.542;7.314;2023-07-30T00:46:52;16.20;99.90
14006;DHT22;7078;51.542;7.314;2023-07-30T00:49:17;16.20;99.90
14006;DHT22;7078;51.542;7.314;2023-07-30T00:51:44;16.20;99.90
14006;DHT22;7078;51.542;7.314;2023-07-30T00:54:10;16.10;99.90
14006;DHT22;7078;51.542;7.314;2023-07-30T00:56:36;16.10;99.90
14006;DHT22;7078;51.542;7.314;2023-07-30T00:59:02;16.10;99.90
14006;DHT22;7078;51.542;7.314;2023-07-30T01:01:30;16.10;99.90
14006;DHT22;7078;51.542;7.314;2023-07-30T01:03:58;16.00;99.90
14006;DHT22;7078;51.542;7.314;2023-07-30T01:06:24;16.00;99.90
14006;DHT22;7078;51.542;7.314;2023-07-30T01:08:49;16.00;99.90
14006;DHT22;7078;51.542;7.314;2023-07-30T01:11:15;15.90;99.90
14006;DHT22;7078;51.542;7.314;2023-07-30T01:13:42;15.90;99.90
14006;DHT22;7078;51.542;7.314;2023-07-30T01:16:08;15.90;99.90
14006;DHT22;7078;51.542;7.314;2023-07-30T01:18:34;15.90;99.90
14006;DHT22;7078;51.542;7.314;2023-07-30T01:20:59;15.80;99.90
14006;DHT22;7078;51.542;7.314;2023-07-30T01:23:26;15.80;99.90
14006;DHT22;7078;51.542;7.314;2023-07-30T01:26:12;15.80;99.90
14006;DHT22;7078;51.542;7.314;2023-07-30T01:28:45;15.70;99.90
14006;DHT22;7078;51.542;7.314;2023-07-30T01:31:15;15.60;99.90
14006;DHT22;7078;51.542;7.314;2023-07-30T01:33:41;15.60;99.90
14006;DHT22;7078;51.542;7.314;2023-07-30T01:36:09;15.50;99.90
14006;DHT22;7078;51.542;7.314;2023-07-30T01:38:37;15.50;99.90
14006;DHT22;7078;51.542;7.314;2023-07-30T01:41:03;15.40;99.90
14006;DHT22;7078;51.542;7.314;2023-07-30T01:43:28;15.40;99.90
14006;DHT22;7078;51.542;7.314;2023-07-30T01:45:54;15.40;99.90
14006;DHT22;7078;51.542;7.314;2023-07-30T01:48:19;15.40;99.90
14006;DHT22;7078;51.542;7.314;2023-07-30T01:50:45;15.40;99.90
14006;DHT22;7078;51.542;7.314;2023-07-30T01:53:12;15.50;99.90
14006;DHT22;7078;51.542;7.314;2023-07-30T01:55:38;15.40;99.90
14006;DHT22;7078;51.542;7.314;2023-07-30T01:58:04;15.50;99.90
14006;DHT22;7078;51.542;7.314;2023-07-30T02:00:30;15.50;99.90
14006;DHT22;7078;51.542;7.314;2023-07-30T02:02:55;15.50;99.90
14006;DHT22;7078;51.542;7.314;2023-07-30T02:05:21;15.50;99.90
14006;DHT22;7078;51.542;7.314;2023-07-30T02:07:46;15.50;99.90
14006;DHT22;7078;51.542;7.314;2023-07-30T02:10:12;15.50;99.90
14006;DHT22;7078;51.542;7.314;2023-07-30T02:12:38;15.50;99.90
14006;DHT22;7078;51.542;7.314;2023-07-30T02:15:04;15.40;99.90
14006;DHT22;7078;51.542;7.314;2023-07-30T02:17:30;15.40;99.90
14006;DHT22;7078;51.542;7.314;2023-07-30T02:19:55;15.40;99.90
14006;DHT22;7078;51.542;7.314;2023-07-30T02:22:21;15.30;99.90
14006;DHT22;7078;51.542;7.314;2023-07-30T02:24:46;15.30;99.90
14006;DHT22;7078;51.542;7.314;2023-07-30T02:27:12;15.30;99.90
14006;DHT22;7078;51.542;7.314;2023-07-30T02:29:37;15.30;99.90
14006;DHT22;7078;51.542;7.314;2023-07-30T02:32:03;15.20;99.90
14006;DHT22;7078;51.542;7.314;2023-07-30T02:34:29;15.20;99.90
14006;DHT22;7078;51.542;7.314;2023-07-30T02:36:54;15.20;99.90
14006;DHT22;7078;51.542;7.314;2023-07-30T02:39:20;15.20;99.90
14006;DHT22;7078;51.542;7.314;2023-07-30T02:41:46;15.20;99.90
14006;DHT22;7078;51.542;7.314;2023-07-30T02:44:11;15.10;99.90
14006;DHT22;7078;51.542;7.314;2023-07-30T02:46:37;15.10;99.90
14006;DHT22;7078;51.542;7.314;2023-07-30T02:49:02;15.10;99.90
14006;DHT22;7078;51.542;7.314;2023-07-30T02:51:28;15.10;99.90
14006;DHT22;7078;51.542;7.314;2023-07-30T02:53:57;15.10;99.90
14006;DHT22;7078;51.542;7.314;2023-07-30T02:56:26;15.10;99.90
14006;DHT22;7078;51.542;7.314;2023-07-30T02:58:52;15.10;99.90
14006;DHT22;7078;51.542;7.314;2023-07-30T03:01:17;15.10;99.90
14006;DHT22;7078;51.542;7.314;2023-07-30T03:03:43;15.10;99.90
14006;DHT22;7078;51.542;7.314;2023-07-30T03:06:09;15.10;99.90
14006;DHT22;7078;51.542;7.314;2023-07-30T03:08:34;15.10;99.90
14006;DHT22;7078;51.542;7.314;2023-07-30T03:11:01;15.10;99.90
14006;DHT22;7078;51.542;7.314;2023-07-30T03:13:27;15.10;99.90
14006;DHT22;7078;51.542;7.314;2023-07-30T03:15:52;15.10;99.90
14006;DHT22;7078;51.542;7.314;2023-07-30T03:18:18;15.00;99.90
14006;DHT22;7078;51.542;7.314;2023-07-30T03:20:44;15.00;99.90
14006;DHT22;7078;51.542;7.314;2023-07-30T03:23:09;15.00;99.90
14006;DHT22;7078;51.542;7.314;2023-07-30T03:25:35;15.00;99.90
14006;DHT22;7078;51.542;7.314;2023-07-30T03:28:00;14.90;99.90
14006;DHT22;7078;51.542;7.314;2023-07-30T03:30:26;14.90;99.90
14006;DHT22;7078;51.542;7.314;2023-07-30T03:32:51;14.90;99.90
14006;DHT22;7078;51.542;7.314;2023-07-30T03:35:17;14.90;99.90
14006;DHT22;7078;51.542;7.314;2023-07-30T03:37:42;14.80;99.90
14006;DHT22;7078;51.542;7.314;2023-07-30T03:40:08;14.80;99.90
14006;DHT22;7078;51.542;7.314;2023-07-30T03:42:34;14.80;99.90
14006;DHT22;7078;51.542;7.314;2023-07-30T03:44:59;14.70;99.90
14006;DHT22;7078;51.542;7.314;2023-07-30T03:47:25;14.70;99.90
14006;DHT22;7078;51.542;7.314;2023-07-30T03:49:50;14.70;99.90
14006;DHT22;7078;51.542;7.314;2023-07-30T03:52:16;14.70;99.90
14006;DHT22;7078;51.542;7.314;2023-07-30T03:54:42;14.60;99.90
14006;DHT22;7078;51.542;7.314;2023-07-30T03:57:08;14.60;99.90
14006;DHT22;7078;51.542;7.314;2023-07-30T03:59:33;14.60;99.90
14006;DHT22;7078;51.542;7.314;2023-07-30T04:01:59;14.70;99.90
14006;DHT22;7078;51.542;7.314;2023-07-30T04:04:25;14.60;99.90
14006;DHT22;7078;51.542;7.314;2023-07-30T04:06:50;14.60;99.90
14006;DHT22;7078;51.542;7.314;2023-07-30T04:09:16;14.70;99.90
14006;DHT22;7078;51.542;7.314;2023-07-30T04:11:41;14.70;99.90
14006;DHT22;7078;51.542;7.314;2023-07-30T04:14:07;14.70;99.90
14006;DHT22;7078;51.542;7.314;2023-07-30T04:16:34;14.70;99.90
14006;DHT22;7078;51.542;7.314;2023-07-30T04:19:00;14.70;99.90
14006;DHT22;7078;51.542;7.314;2023-07-30T04:21:25;14.80;99.90
14006;DHT22;7078;51.542;7.314;2023-07-30T04:23:51;14.80;99.90
14006;DHT22;7078;51.542;7.314;2023-07-30T04:26:17;14.70;99.90
14006;DHT22;7078;51.542;7.314;2023-07-30T04:28:42;14.70;99.90
14006;DHT22;7078;51.542;7.314;2023-07-30T04:31:08;14.70;99.90
14006;DHT22;7078;51.542;7.314;2023-07-30T04:33:33;14.80;99.90
14006;DHT22;7078;51.542;7.314;2023-07-30T04:35:59;14.80;99.90
14006;DHT22;7078;51.542;7.314;2023-07-30T04:38:25;14.90;99.90
14006;DHT22;7078;51.542;7.314;2023-07-30T04:40:50;14.90;99.90
14006;DHT22;7078;51.542;7.314;2023-07-30T04:43:16;15.00;99.90
14006;DHT22;7078;51.542;7.314;2023-07-30T04:45:42;15.00;99.90
14006;DHT22;7078;51.542;7.314;2023-07-30T04:48:08;15.00;99.90
14006;DHT22;7078;51.542;7.314;2023-07-30T04:50:33;15.00;99.90
14006;DHT22;7078;51.542;7.314;2023-07-30T04:52:59;15.10;99.90
14006;DHT22;7078;51.542;7.314;2023-07-30T04:55:25;15.10;99.90
14006;DHT22;7078;51.542;7.314;2023-07-30T04:57:50;15.20;99.90
14006;DHT22;7078;51.542;7.314;2023-07-30T05:00:16;15.30;99.90
14006;DHT22;7078;51.542;7.314;2023-07-30T05:02:42;15.30;99.90
14006;DHT22;7078;51.542;7.314;2023-07-30T05:05:08;15.40;99.90
14006;DHT22;7078;51.542;7.314;2023-07-30T05:07:34;15.50;99.90
14006;DHT22;7078;51.542;7.314;2023-07-30T05:09:59;15.60;99.90
14006;DHT22;7078;51.542;7.314;2023-07-30T05:12:25;15.70;99.90
14006;DHT22;7078;51.542;7.314;2023-07-30T05:14:50;15.70;99.90
14006;DHT22;7078;51.542;7.314;2023-07-30T05:17:16;15.80;99.90
14006;DHT22;7078;51.542;7.314;2023-07-30T05:19:41;15.80;99.90
14006;DHT22;7078;51.542;7.314;2023-07-30T05:22:07;15.90;99.90
14006;DHT22;7078;51.542;7.314;2023-07-30T05:24:33;15.90;99.90
14006;DHT22;7078;51.542;7.314;2023-07-30T05:26:59;15.90;99.90
14006;DHT22;7078;51.542;7.314;2023-07-30T05:29:24;15.90;99.90
14006;DHT22;7078;51.542;7.314;2023-07-30T05:31:50;16.00;99.90
14006;DHT22;7078;51.542;7.314;2023-07-30T05:34:15;15.90;99.90
14006;DHT22;7078;51.542;7.314;2023-07-30T05:36:41;15.90;99.90
14006;DHT22;7078;51.542;7.314;2023-07-30T05:39:06;15.90;99.90
14006;DHT22;7078;51.542;7.314;2023-07-30T05:41:32;15.80;99.90
14006;DHT22;7078;51.542;7.314;2023-07-30T05:43:58;15.80;99.90
14006;DHT22;7078;51.542;7.314;2023-07-30T05:46:23;15.90;99.90
14006;DHT22;7078;51.542;7.314;2023-07-30T05:48:49;16.00;99.90
14006;DHT22;7078;51.542;7.314;2023-07-30T05:51:14;16.00;99.90
14006;DHT22;7078;51.542;7.314;2023-07-30T05:53:40;16.00;99.90
14006;DHT22;7078;51.542;7.314;2023-07-30T05:56:05;16.00;99.90
14006;DHT22;7078;51.542;7.314;2023-07-30T05:58:31;16.00;99.90
14006;DHT22;7078;51.542;7.314;2023-07-30T06:00:57;16.10;99.90
14006;DHT22;7078;51.542;7.314;2023-07-30T06:03:22;16.10;99.90
14006;DHT22;7078;51.542;7.314;2023-07-30T06:05:48;16.10;99.90
14006;DHT22;7078;51.542;7.314;2023-07-30T06:08:13;16.10;99.90
14006;DHT22;7078;51.542;7.314;2023-07-30T06:10:39;16.10;99.90
14006;DHT22;7078;51.542;7.314;2023-07-30T06:13:06;16.20;99.90
14006;DHT22;7078;51.542;7.314;2023-07-30T06:15:33;16.20;99.90
14006;DHT22;7078;51.542;7.314;2023-07-30T06:17:58;16.20;99.90
14006;DHT22;7078;51.542;7.314;2023-07-30T06:20:24;16.20;99.90
14006;DHT22;7078;51.542;7.314;2023-07-30T06:22:50;16.20;99.90
14006;DHT22;7078;51.542;7.314;2023-07-30T06:25:15;16.20;99.90
14006;DHT22;7078;51.542;7.314;2023-07-30T06:27:41;16.20;99.90
14006;DHT22;7078;51.542;7.314;2023-07-30T06:30:07;16.30;99.90
14006;DHT22;7078;51.542;7.314;2023-07-30T06:32:32;16.30;99.90
14006;DHT22;7078;51.542;7.314;2023-07-30T06:34:58;16.40;99.90
14006;DHT22;7078;51.542;7.314;2023-07-30T06:37:23;16.40;99.90
14006;DHT22;7078;51.542;7.314;2023-07-30T06:39:49;16.50;99.90
14006;DHT22;7078;51.542;7.314;2023-07-30T06:42:14;16.50;99.90
14006;DHT22;7078;51.542;7.314;2023-07-30T06:44:40;16.50;99.90
14006;DHT22;7078;51.542;7.314;2023-07-30T06:47:06;16.50;99.90
14006;DHT22;7078;51.542;7.314;2023-07-30T06:49:31;16.40;99.90
14006;DHT22;7078;51.542;7.314;2023-07-30T06:51:59;16.40;99.90
14006;DHT22;7078;51.542;7.314;2023-07-30T06:54:25;16.40;99.90
14006;DHT22;7078;51.542;7.314;2023-07-30T06:56:50;16.40;99.90
14006;DHT22;7078;51.542;7.314;2023-07-30T06:59:16;16.30;99.90
14006;DHT22;7078;51.542;7.314;2023-07-30T07:01:41;16.20;99.90
14006;DHT22;7078;51.542;7.314;2023-07-30T07:04:07;16.20;99.90
14006;DHT22;7078;51.542;7.314;2023-07-30T07:06:32;16.20;99.90
14006;DHT22;7078;51.542;7.314;2023-07-30T07:08:58;16.20;99.90
14006;DHT22;7078;51.542;7.314;2023-07-30T07:11:23;16.10;99.90
14006;DHT22;7078;51.542;7.314;2023-07-30T07:13:49;16.20;99.90
14006;DHT22;7078;51.542;7.314;2023-07-30T07:16:15;16.20;99.90
14006;DHT22;7078;51.542;7.314;2023-07-30T07:18:40;16.20;99.90
14006;DHT22;7078;51.542;7.314;2023-07-30T07:21:06;16.20;99.90
14006;DHT22;7078;51.542;7.314;2023-07-30T07:23:31;16.20;99.90
14006;DHT22;7078;51.542;7.314;2023-07-30T07:25:57;16.20;99.90
14006;DHT22;7078;51.542;7.314;2023-07-30T07:28:23;16.10;99.90
14006;DHT22;7078;51.542;7.314;2023-07-30T07:30:48;16.10;99.90
14006;DHT22;7078;51.542;7.314;2023-07-30T07:33:14;16.20;99.90
14006;DHT22;7078;51.542;7.314;2023-07-30T07:35:40;16.20;99.90
14006;DHT22;7078;51.542;7.314;2023-07-30T07:38:06;16.20;99.90
14006;DHT22;7078;51.542;7.314;2023-07-30T07:40:37;16.20;99.90
14006;DHT22;7078;51.542;7.314;2023-07-30T07:43:05;16.10;99.90
14006;DHT22;7078;51.542;7.314;2023-07-30T07:45:30;16.10;99.90
14006;DHT22;7078;51.542;7.314;2023-07-30T07:47:56;16.20;99.90
14006;DHT22;7078;51.542;7.314;2023-07-30T07:50:21;16.20;99.90
14006;DHT22;7078;51.542;7.314;2023-07-30T07:52:47;16.30;99.90
14006;DHT22;7078;51.542;7.314;2023-07-30T07:55:12;16.30;99.90
14006;DHT22;7078;51.542;7.314;2023-07-30T07:57:38;16.40;99.90
14006;DHT22;7078;51.542;7.314;2023-07-30T08:00:04;16.50;99.90
14006;DHT22;7078;51.542;7.314;2023-07-30T08:02:30;16.50;99.90
14006;DHT22;7078;51.542;7.314;2023-07-30T08:04:56;16.50;99.90
14006;DHT22;7078;51.542;7.314;2023-07-30T08:07:22;16.60;99.90
14006;DHT22;7078;51.542;7.314;2023-07-30T08:09:47;16.60;99.90
14006;DHT22;7078;51.542;7.314;2023-07-30T08:12:13;16.60;99.90
14006;DHT22;7078;51.542;7.314;2023-07-30T08:14:39;16.70;99.90
14006;DHT22;7078;51.542;7.314;2023-07-30T08:17:05;16.80;99.90
14006;DHT22;7078;51.542;7.314;2023-07-30T08:19:30;16.90;99.90
14006;DHT22;7078;51.542;7.314;2023-07-30T08:21:57;17.10;99.90
14006;DHT22;7078;51.542;7.314;2023-07-30T08:24:23;17.10;99.90
14006;DHT22;7078;51.542;7.314;2023-07-30T08:26:49;17.00;99.90
14006;DHT22;7078;51.542;7.314;2023-07-30T08:29:14;17.20;99.90
14006;DHT22;7078;51.542;7.314;2023-07-30T08:31:41;17.10;99.90
14006;DHT22;7078;51.542;7.314;2023-07-30T08:34:07;17.10;99.90
14006;DHT22;7078;51.542;7.314;2023-07-30T08:36:32;17.20;99.90
14006;DHT22;7078;51.542;7.314;2023-07-30T08:38:58;17.30;99.90
14006;DHT22;7078;51.542;7.314;2023-07-30T08:41:24;17.30;99.90
14006;DHT22;7078;51.542;7.314;2023-07-30T08:43:50;17.30;99.90
14006;DHT22;7078;51.542;7.314;2023-07-30T08:46:17;17.30;99.90
14006;DHT22;7078;51.542;7.314;2023-07-30T08:48:42;17.20;99.90
14006;DHT22;7078;51.542;7.314;2023-07-30T08:51:08;17.20;99.90
14006;DHT22;7078;51.542;7.314;2023-07-30T08:53:35;17.30;99.90
14006;DHT22;7078;51.542;7.314;2023-07-30T08:56:01;17.40;99.90
14006;DHT22;7078;51.542;7.314;2023-07-30T08:58:28;17.60;99.90
14006;DHT22;7078;51.542;7.314;2023-07-30T09:00:55;17.90;99.90
14006;DHT22;7078;51.542;7.314;2023-07-30T09:03:24;18.30;99.90
14006;DHT22;7078;51.542;7.314;2023-07-30T09:05:52;18.50;99.90
14006;DHT22;7078;51.542;7.314;2023-07-30T09:08:18;18.70;99.90
14006;DHT22;7078;51.542;7.314;2023-07-30T09:10:43;18.80;99.90
14006;DHT22;7078;51.542;7.314;2023-07-30T09:13:09;18.80;99.90
14006;DHT22;7078;51.542;7.314;2023-07-30T09:15:36;19.00;99.90
14006;DHT22;7078;51.542;7.314;2023-07-30T09:18:05;18.80;99.90
14006;DHT22;7078;51.542;7.314;2023-07-30T09:20:40;18.70;99.90
14006;DHT22;7078;51.542;7.314;2023-07-30T09:23:07;18.60;99.90
14006;DHT22;7078;51.542;7.314;2023-07-30T09:25:33;18.30;99.90
14006;DHT22;7078;51.542;7.314;2023-07-30T09:27:59;18.30;99.90
14006;DHT22;7078;51.542;7.314;2023-07-30T09:30:26;18.30;99.90
14006;DHT22;7078;51.542;7.314;2023-07-30T09:32:54;18.60;99.90
14006;DHT22;7078;51.542;7.314;2023-07-30T09:35:20;18.80;99.90
14006;DHT22;7078;51.542;7.314;2023-07-30T09:37:45;19.10;99.90
14006;DHT22;7078;51.542;7.314;2023-07-30T09:40:13;19.30;99.90
14006;DHT22;7078;51.542;7.314;2023-07-30T09:42:42;19.20;99.90
14006;DHT22;7078;51.542;7.314;2023-07-30T09:45:17;19.20;99.90
14006;DHT22;7078;51.542;7.314;2023-07-30T09:47:50;19.20;99.90
14006;DHT22;7078;51.542;7.314;2023-07-30T09:50:15;19.20;99.90
14006;DHT22;7078;51.542;7.314;2023-07-30T09:52:42;19.10;99.90
14006;DHT22;7078;51.542;7.314;2023-07-30T09:55:09;19.10;99.90
14006;DHT22;7078;51.542;7.314;2023-07-30T09:57:35;19.30;99.90
14006;DHT22;7078;51.542;7.314;2023-07-30T10:00:02;19.40;99.90
14006;DHT22;7078;51.542;7.314;2023-07-30T10:02:29;19.50;99.90
14006;DHT22;7078;51.542;7.314;2023-07-30T10:04:59;19.60;99.90
14006;DHT22;7078;51.542;7.314;2023-07-30T10:07:27;19.70;99.90
14006;DHT22;7078;51.542;7.314;2023-07-30T10:09:57;19.90;99.90
14006;DHT22;7078;51.542;7.314;2023-07-30T10:12:27;19.90;99.90
14006;DHT22;7078;51.542;7.314;2023-07-30T10:14:54;20.30;99.90
14006;DHT22;7078;51.542;7.314;2023-07-30T10:17:19;20.30;99.90
14006;DHT22;7078;51.542;7.314;2023-07-30T10:19:49;20.30;99.90
14006;DHT22;7078;51.542;7.314;2023-07-30T10:25:03;20.40;99.90
14006;DHT22;7078;51.542;7.314;2023-07-30T10:27:42;20.30;99.90
14006;DHT22;7078;51.542;7.314;2023-07-30T10:30:19;20.30;99.90
14006;DHT22;7078;51.542;7.314;2023-07-30T10:33:14;20.20;99.90
14006;DHT22;7078;51.542;7.314;2023-07-30T10:35:45;20.20;99.90
14006;DHT22;7078;51.542;7.314;2023-07-30T10:38:30;20.30;99.90
14006;DHT22;7078;51.542;7.314;2023-07-30T10:41:02;20.50;99.90
14006;DHT22;7078;51.542;7.314;2023-07-30T10:43:32;20.60;99.90
14006;DHT22;7078;51.542;7.314;2023-07-30T10:45:59;20.40;99.90
14006;DHT22;7078;51.542;7.314;2023-07-30T10:48:38;20.30;99.90
14006;DHT22;7078;51.542;7.314;2023-07-30T10:51:06;20.30;99.90
14006;DHT22;7078;51.542;7.314;2023-07-30T10:53:32;20.40;99.90
14006;DHT22;7078;51.542;7.314;2023-07-30T10:55:59;20.60;99.90
14006;DHT22;7078;51.542;7.314;2023-07-30T10:58:29;20.50;99.90
14006;DHT22;7078;51.542;7.314;2023-07-30T11:00:54;20.50;99.90
14006;DHT22;7078;51.542;7.314;2023-07-30T11:03:20;20.60;99.90
14006;DHT22;7078;51.542;7.314;2023-07-30T11:05:47;20.40;99.90
14006;DHT22;7078;51.542;7.314;2023-07-30T11:08:13;20.40;99.90
14006;DHT22;7078;51.542;7.314;2023-07-30T11:10:45;20.30;99.90
14006;DHT22;7078;51.542;7.314;2023-07-30T11:13:14;20.00;99.90
14006;DHT22;7078;51.542;7.314;2023-07-30T11:15:41;19.90;99.90
14006;DHT22;7078;51.542;7.314;2023-07-30T11:18:07;20.00;99.90
14006;DHT22;7078;51.542;7.314;2023-07-30T11:20:33;20.30;99.90
14006;DHT22;7078;51.542;7.314;2023-07-30T11:22:58;20.60;99.90
14006;DHT22;7078;51.542;7.314;2023-07-30T11:25:24;20.90;99.90
14006;DHT22;7078;51.542;7.314;2023-07-30T11:27:50;21.10;99.90
14006;DHT22;7078;51.542;7.314;2023-07-30T11:30:16;21.20;99.90
14006;DHT22;7078;51.542;7.314;2023-07-30T11:32:43;21.30;99.90
14006;DHT22;7078;51.542;7.314;2023-07-30T11:35:11;21.30;99.90
14006;DHT22;7078;51.542;7.314;2023-07-30T11:37:37;21.50;99.90
14006;DHT22;7078;51.542;7.314;2023-07-30T11:40:07;21.60;99.90
14006;DHT22;7078;51.542;7.314;2023-07-30T11:42:34;21.70;99.90
14006;DHT22;7078;51.542;7.314;2023-07-30T11:45:17;21.60;99.90
14006;DHT22;7078;51.542;7.314;2023-07-30T11:47:43;21.60;99.90
14006;DHT22;7078;51.542;7.314;2023-07-30T11:50:09;21.50;99.90
14006;DHT22;7078;51.542;7.314;2023-07-30T11:52:34;21.50;99.90
14006;DHT22;7078;51.542;7.314;2023-07-30T11:55:03;21.40;99.90
14006;DHT22;7078;51.542;7.314;2023-07-30T11:57:35;21.30;99.90
14006;DHT22;7078;51.542;7.314;2023-07-30T12:00:01;21.00;99.90
14006;DHT22;7078;51.542;7.314;2023-07-30T12:02:29;20.70;99.90
14006;DHT22;7078;51.542;7.314;2023-07-30T12:04:55;20.50;99.90
14006;DHT22;7078;51.542;7.314;2023-07-30T12:07:24;20.60;99.90
14006;DHT22;7078;51.542;7.314;2023-07-30T12:09:50;20.70;99.90
14006;DHT22;7078;51.542;7.314;2023-07-30T12:12:15;20.80;99.90
14006;DHT22;7078;51.542;7.314;2023-07-30T12:14:53;20.90;99.90
14006;DHT22;7078;51.542;7.314;2023-07-30T12:17:19;20.90;99.90
14006;DHT22;7078;51.542;7.314;2023-07-30T12:19:45;20.90;99.90
14006;DHT22;7078;51.542;7.314;2023-07-30T12:22:10;21.00;99.90
14006;DHT22;7078;51.542;7.314;2023-07-30T12:24:36;21.10;99.90
14006;DHT22;7078;51.542;7.314;2023-07-30T12:27:01;21.10;99.90
14006;DHT22;7078;51.542;7.314;2023-07-30T12:29:27;21.20;99.90
14006;DHT22;7078;51.542;7.314;2023-07-30T12:31:52;21.50;99.90
14006;DHT22;7078;51.542;7.314;2023-07-30T12:34:19;21.80;99.90
14006;DHT22;7078;51.542;7.314;2023-07-30T12:36:45;21.80;99.90
14006;DHT22;7078;51.542;7.314;2023-07-30T12:39:11;21.80;99.90
14006;DHT22;7078;51.542;7.314;2023-07-30T12:41:36;21.80;99.90
14006;DHT22;7078;51.542;7.314;2023-07-30T12:44:03;22.20;99.90
14006;DHT22;7078;51.542;7.314;2023-07-30T12:46:30;22.50;98.50
14006;DHT22;7078;51.542;7.314;2023-07-30T12:48:57;22.50;97.30
14006;DHT22;7078;51.542;7.314;2023-07-30T12:51:23;22.60;99.90
14006;DHT22;7078;51.542;7.314;2023-07-30T12:53:48;22.60;98.40
14006;DHT22;7078;51.542;7.314;2023-07-30T12:56:15;22.60;96.80
14006;DHT22;7078;51.542;7.314;2023-07-30T12:58:41;22.40;97.20
14006;DHT22;7078;51.542;7.314;2023-07-30T13:01:06;22.20;97.70
14006;DHT22;7078;51.542;7.314;2023-07-30T13:03:32;22.40;97.40
14006;DHT22;7078;51.542;7.314;2023-07-30T13:05:58;22.40;97.60
14006;DHT22;7078;51.542;7.314;2023-07-30T13:08:23;22.30;95.30
14006;DHT22;7078;51.542;7.314;2023-07-30T13:10:49;22.00;97.30
14006;DHT22;7078;51.542;7.314;2023-07-30T13:13:14;22.00;97.20
14006;DHT22;7078;51.542;7.314;2023-07-30T13:15:40;21.90;97.20
14006;DHT22;7078;51.542;7.314;2023-07-30T13:18:05;21.90;97.40
14006;DHT22;7078;51.542;7.314;2023-07-30T13:20:31;22.30;97.60
14006;DHT22;7078;51.542;7.314;2023-07-30T13:22:57;22.60;96.50
14006;DHT22;7078;51.542;7.314;2023-07-30T13:25:24;22.60;96.20
14006;DHT22;7078;51.542;7.314;2023-07-30T13:27:50;22.60;95.20
14006;DHT22;7078;51.542;7.314;2023-07-30T13:30:16;22.50;94.30
14006;DHT22;7078;51.542;7.314;2023-07-30T13:32:41;22.40;95.30
14006;DHT22;7078;51.542;7.314;2023-07-30T13:35:07;22.20;94.40
14006;DHT22;7078;51.542;7.314;2023-07-30T13:37:32;21.70;93.60
14006;DHT22;7078;51.542;7.314;2023-07-30T13:39:58;21.40;94.80
14006;DHT22;7078;51.542;7.314;2023-07-30T13:42:24;21.30;95.90
14006;DHT22;7078;51.542;7.314;2023-07-30T13:44:49;21.20;96.70
14006;DHT22;7078;51.542;7.314;2023-07-30T13:47:15;21.10;95.60
14006;DHT22;7078;51.542;7.314;2023-07-30T13:49:40;21.00;96.20
14006;DHT22;7078;51.542;7.314;2023-07-30T13:52:06;21.00;98.60
14006;DHT22;7078;51.542;7.314;2023-07-30T13:54:31;21.10;99.90
14006;DHT22;7078;51.542;7.314;2023-07-30T13:56:57;21.20;99.90
14006;DHT22;7078;51.542;7.314;2023-07-30T13:59:22;21.50;99.90
14006;DHT22;7078;51.542;7.314;2023-07-30T14:01:48;21.80;99.90
14006;DHT22;7078;51.542;7.314;2023-07-30T14:04:13;21.80;99.90
14006;DHT22;7078;51.542;7.314;2023-07-30T14:06:39;21.80;99.90
14006;DHT22;7078;51.542;7.314;2023-07-30T14:09:04;21.80;99.90
14006;DHT22;7078;51.542;7.314;2023-07-30T14:11:30;21.80;99.90
14006;DHT22;7078;51.542;7.314;2023-07-30T14:13:57;21.90;99.90
14006;DHT22;7078;51.542;7.314;2023-07-30T14:16:23;22.20;99.90
14006;DHT22;7078;51.542;7.314;2023-07-30T14:18:48;22.50;99.90
14006;DHT22;7078;51.542;7.314;2023-07-30T14:21:14;22.60;96.40
14006;DHT22;7078;51.542;7.314;2023-07-30T14:23:40;22.60;95.80
14006;DHT22;7078;51.542;7.314;2023-07-30T14:26:05;22.50;96.40
14006;DHT22;7078;51.542;7.314;2023-07-30T14:28:32;22.50;98.00
14006;DHT22;7078;51.542;7.314;2023-07-30T14:30:57;22.20;96.40
14006;DHT22;7078;51.542;7.314;2023-07-30T14:33:23;21.80;96.00
14006;DHT22;7078;51.542;7.314;2023-07-30T14:35:48;21.60;98.80
14006;DHT22;7078;51.542;7.314;2023-07-30T14:38:14;21.30;99.90
14006;DHT22;7078;51.542;7.314;2023-07-30T14:40:40;21.00;99.90
14006;DHT22;7078;51.542;7.314;2023-07-30T14:43:07;20.80;99.90
14006;DHT22;7078;51.542;7.314;2023-07-30T14:45:33;20.60;99.90
14006;DHT22;7078;51.542;7.314;2023-07-30T14:47:58;20.50;99.90
14006;DHT22;7078;51.542;7.314;2023-07-30T14:50:24;20.30;99.90
14006;DHT22;7078;51.542;7.314;2023-07-30T14:52:49;20.30;99.90
14006;DHT22;7078;51.542;7.314;2023-07-30T14:55:15;20.20;99.90
14006;DHT22;7078;51.542;7.314;2023-07-30T14:57:41;20.10;99.90
14006;DHT22;7078;51.542;7.314;2023-07-30T15:00:07;20.10;99.90
14006;DHT22;7078;51.542;7.314;2023-07-30T15:02:36;20.50;99.90
14006;DHT22;7078;51.542;7.314;2023-07-30T15:05:02;20.70;99.90
14006;DHT22;7078;51.542;7.314;2023-07-30T15:07:28;21.00;99.90
14006;DHT22;7078;51.542;7.314;2023-07-30T15:09:54;21.60;99.90
14006;DHT22;7078;51.542;7.314;2023-07-30T15:12:20;22.20;99.90
14006;DHT22;7078;51.542;7.314;2023-07-30T15:14:46;22.80;99.90
14006;DHT22;7078;51.542;7.314;2023-07-30T15:17:11;22.70;97.40
14006;DHT22;7078;51.542;7.314;2023-07-30T15:19:38;22.20;96.20
14006;DHT22;7078;51.542;7.314;2023-07-30T15:22:04;22.00;99.10
14006;DHT22;7078;51.542;7.314;2023-07-30T15:24:30;21.60;98.60
14006;DHT22;7078;51.542;7.314;2023-07-30T15:26:56;21.30;99.90
14006;DHT22;7078;51.542;7.314;2023-07-30T15:29:21;21.00;99.90
14006;DHT22;7078;51.542;7.314;2023-07-30T15:31:49;20.90;99.90
14006;DHT22;7078;51.542;7.314;2023-07-30T15:34:15;20.70;99.90
14006;DHT22;7078;51.542;7.314;2023-07-30T15:36:41;20.60;99.90
14006;DHT22;7078;51.542;7.314;2023-07-30T15:39:06;20.40;99.90
14006;DHT22;7078;51.542;7.314;2023-07-30T15:41:32;20.40;99.90